createdAt,value
2023-01-29T00:01:19.054Z,97155.88
2023-01-29T00:03:45.746Z,97157.78
2023-01-29T00:06:13.113Z,97161.38
2023-01-29T00:08:40.461Z,97165.00
2023-01-29T00:11:07.945Z,97159.75
2023-01-29T00:13:35.172Z,97171.47
2023-01-29T00:16:01.981Z,97172.38
2023-01-29T00:18:29.129Z,97169.81
2023-01-29T00:20:56.655Z,97168.09
2023-01-29T00:23:23.226Z,97169.91
2023-01-29T00:25:49.730Z,97173.50
2023-01-29T00:28:16.704Z,97170.00
2023-01-29T00:30:43.566Z,97170.91
2023-01-29T00:33:11.843Z,97164.72
2023-01-29T00:35:39.595Z,97169.28
2023-01-29T00:38:06.324Z,97171.09
2023-01-29T00:40:52.766Z,97169.38
2023-01-29T00:43:37.792Z,97163.19
2023-01-29T00:46:06.495Z,97165.09
2023-01-29T00:48:34.114Z,97166.00
2023-01-29T00:51:01.139Z,97164.31
2023-01-29T00:53:28.258Z,97155.44
2023-01-29T00:55:54.747Z,97159.91
2023-01-29T00:58:22.244Z,97163.53
2023-01-29T01:00:49.505Z,97161.81
2023-01-29T01:03:16.270Z,97161.81
2023-01-29T01:05:42.993Z,97160.13
2023-01-29T01:08:28.797Z,97164.56
2023-01-29T01:10:59.250Z,97172.66
2023-01-29T01:13:25.983Z,97170.91
2023-01-29T01:15:52.508Z,97165.69
2023-01-29T01:18:22.180Z,97169.22
2023-01-29T01:20:51.830Z,97172.81
2023-01-29T01:23:19.265Z,97168.41
2023-01-29T01:25:46.495Z,97172.03
2023-01-29T01:28:13.126Z,97172.88
2023-01-29T01:30:39.957Z,97179.19
2023-01-29T01:33:07.177Z,97166.78
2023-01-29T01:35:33.651Z,97158.03
2023-01-29T01:38:00.202Z,97160.78
2023-01-29T01:40:26.829Z,97159.94
2023-01-29T01:42:55.543Z,97161.75
2023-01-29T01:45:28.143Z,97152.03
2023-01-29T01:47:56.520Z,97152.03
2023-01-29T01:50:27.458Z,97149.47
2023-01-29T01:52:55.887Z,97153.94
2023-01-29T01:55:23.494Z,97152.22
2023-01-29T01:57:50.796Z,97159.31
2023-01-29T02:00:17.722Z,97158.47
2023-01-29T02:03:03.438Z,97158.47
2023-01-29T02:05:52.470Z,97156.78
2023-01-29T02:08:43.379Z,97162.19
2023-01-29T02:11:10.157Z,97156.84
2023-01-29T02:13:37.483Z,97159.59
2023-01-29T02:16:04.168Z,97144.59
2023-01-29T02:18:37.894Z,97153.50
2023-01-29T02:21:08.201Z,97145.53
2023-01-29T02:23:38.027Z,97150.91
2023-01-29T02:26:24.164Z,97148.25
2023-01-29T02:29:18.680Z,97143.91
2023-01-29T02:31:45.873Z,97145.69
2023-01-29T02:34:20.712Z,97145.78
2023-01-29T02:36:56.443Z,97133.34
2023-01-29T02:39:33.099Z,97130.75
2023-01-29T02:42:11.670Z,97138.75
2023-01-29T02:44:38.689Z,97143.22
2023-01-29T02:47:05.302Z,97142.38
2023-01-29T02:49:33.066Z,97140.63
2023-01-29T02:52:15.079Z,97137.97
2023-01-29T02:54:52.342Z,97139.78
2023-01-29T02:57:29.045Z,97134.53
2023-01-29T02:59:57.153Z,97137.28
2023-01-29T03:02:35.906Z,97139.94
2023-01-29T03:05:03.829Z,97140.03
2023-01-29T03:07:41.149Z,97145.34
2023-01-29T03:10:20.407Z,97142.78
2023-01-29T03:12:51.433Z,97146.28
2023-01-29T03:15:25.072Z,97152.53
2023-01-29T03:18:09.834Z,97140.22
2023-01-29T03:20:38.259Z,97140.22
2023-01-29T03:23:08.321Z,97134.03
2023-01-29T03:25:55.525Z,97135.81
2023-01-29T03:28:41.467Z,97128.81
2023-01-29T03:31:28.667Z,97125.38
2023-01-29T03:34:34.591Z,97122.72
2023-01-29T03:37:02.958Z,97121.84
2023-01-29T03:39:29.550Z,97122.78
2023-01-29T03:42:02.865Z,97124.59
2023-01-29T03:44:50.159Z,97122.78
2023-01-29T03:47:45.465Z,97127.25
2023-01-29T03:50:25.499Z,97117.53
2023-01-29T03:52:56.727Z,97120.22
2023-01-29T03:55:33.482Z,97115.84
2023-01-29T03:58:00.149Z,97114.97
2023-01-29T04:00:29.057Z,97120.28
2023-01-29T04:03:06.051Z,97126.56
2023-01-29T04:05:45.421Z,97122.94
2023-01-29T04:08:23.667Z,97122.94
2023-01-29T04:10:50.274Z,97126.56
2023-01-29T04:13:16.834Z,97125.72
2023-01-29T04:15:49.725Z,97125.72
2023-01-29T04:18:18.756Z,97128.38
2023-01-29T04:21:01.870Z,97124.84
2023-01-29T04:23:28.958Z,97127.50
2023-01-29T04:26:08.106Z,97124.94
2023-01-29T04:28:55.143Z,97122.28
2023-01-29T04:31:27.133Z,97124.06
2023-01-29T04:33:59.712Z,97118.84
2023-01-29T04:36:32.850Z,97117.03
2023-01-29T04:39:13.401Z,97120.56
2023-01-29T04:41:39.865Z,97120.63
2023-01-29T04:44:29.189Z,97119.78
2023-01-29T04:47:06.332Z,97117.97
2023-01-29T04:49:39.279Z,97125.94
2023-01-29T04:52:10.094Z,97117.13
2023-01-29T04:54:36.819Z,97121.59
2023-01-29T04:57:12.335Z,97120.72
2023-01-29T04:59:40.405Z,97126.03
2023-01-29T05:02:06.990Z,97134.00
2023-01-29T05:04:34.219Z,97134.97
2023-01-29T05:07:01.904Z,97126.91
2023-01-29T05:09:28.392Z,97136.66
2023-01-29T05:11:54.946Z,97141.97
2023-01-29T05:14:21.466Z,97142.09
2023-01-29T05:16:49.562Z,97136.78
2023-01-29T05:19:16.805Z,97145.59
2023-01-29T05:21:47.052Z,97141.19
2023-01-29T05:24:17.909Z,97154.50
2023-01-29T05:27:03.100Z,97134.19
2023-01-29T05:29:29.583Z,97141.19
2023-01-29T05:31:56.812Z,97143.97
2023-01-29T05:34:23.837Z,97131.44
2023-01-29T05:36:50.443Z,97135.03
2023-01-29T05:39:16.951Z,97130.69
2023-01-29T05:41:43.502Z,97138.66
2023-01-29T05:44:10.509Z,97146.63
2023-01-29T05:46:37.455Z,97142.25
2023-01-29T05:49:04.167Z,97143.19
2023-01-29T05:51:30.695Z,97136.84
2023-01-29T05:53:58.589Z,97144.81
2023-01-29T05:56:25.496Z,97132.47
2023-01-29T05:58:52.585Z,97134.19
2023-01-29T06:01:19.934Z,97134.19
2023-01-29T06:03:46.448Z,97135.03
2023-01-29T06:06:13.000Z,97127.91
2023-01-29T06:08:39.564Z,97146.53
2023-01-29T06:11:09.601Z,97139.44
2023-01-29T06:13:38.477Z,97135.88
2023-01-29T06:16:06.226Z,97127.06
2023-01-29T06:18:32.862Z,97137.78
2023-01-29T06:21:06.029Z,97144.91
2023-01-29T06:23:32.506Z,97153.31
2023-01-29T06:25:59.747Z,97152.97
2023-01-29T06:28:26.251Z,97153.59
2023-01-29T06:30:52.753Z,97163.97
2023-01-29T06:33:19.341Z,97162.88
2023-01-29T06:35:46.034Z,97164.50
2023-01-29T06:38:12.512Z,97151.19
2023-01-29T06:40:39.063Z,97146.66
2023-01-29T06:43:05.604Z,97146.56
2023-01-29T06:45:32.093Z,97135.91
2023-01-29T06:48:01.265Z,97133.97
2023-01-29T06:50:27.950Z,97139.84
2023-01-29T06:52:54.566Z,97148.53
2023-01-29T06:55:21.023Z,97149.97
2023-01-29T06:57:47.594Z,97139.16
2023-01-29T07:00:15.632Z,97139.84
2023-01-29T07:02:42.511Z,97131.59
2023-01-29T07:05:09.056Z,97133.22
2023-01-29T07:07:35.772Z,97128.50
2023-01-29T07:10:02.298Z,97131.94
2023-01-29T07:12:29.850Z,97131.78
2023-01-29T07:14:56.313Z,97136.94
2023-01-29T07:17:22.893Z,97138.53
2023-01-29T07:19:49.588Z,97138.38
2023-01-29T07:22:16.326Z,97135.53
2023-01-29T07:24:42.948Z,97132.69
2023-01-29T07:27:10.151Z,97144.88
2023-01-29T07:29:36.566Z,97145.72
2023-01-29T07:32:03.348Z,97150.88
2023-01-29T07:34:30.006Z,97152.41
2023-01-29T07:36:57.046Z,97158.50
2023-01-29T07:39:24.040Z,97158.44
2023-01-29T07:41:50.575Z,97162.72
2023-01-29T07:44:17.044Z,97170.53
2023-01-29T07:46:43.618Z,97164.06
2023-01-29T07:49:10.161Z,97156.75
2023-01-29T07:51:36.671Z,97155.78
2023-01-29T07:54:03.123Z,97150.38
2023-01-29T07:56:29.764Z,97157.31
2023-01-29T07:58:56.274Z,97165.91
2023-01-29T08:01:22.804Z,97161.34
2023-01-29T08:03:51.347Z,97162.97
2023-01-29T08:06:18.005Z,97161.06
2023-01-29T08:08:44.435Z,97168.88
2023-01-29T08:11:11.018Z,97169.66
2023-01-29T08:13:37.676Z,97171.25
2023-01-29T08:16:04.396Z,97175.56
2023-01-29T08:18:31.606Z,97173.59
2023-01-29T08:21:01.372Z,97183.91
2023-01-29T08:23:27.823Z,97182.63
2023-01-29T08:25:54.827Z,97178.00
2023-01-29T08:28:21.362Z,97183.22
2023-01-29T08:30:47.910Z,97184.97
2023-01-29T08:33:16.201Z,97188.38
2023-01-29T08:35:42.772Z,97192.75
2023-01-29T08:38:09.282Z,97169.59
2023-01-29T08:40:35.792Z,97203.25
2023-01-29T08:43:03.966Z,97204.94
2023-01-29T08:45:33.169Z,97220.00
2023-01-29T08:47:59.765Z,97218.09
2023-01-29T08:50:32.859Z,97217.91
2023-01-29T08:52:59.498Z,97211.63
2023-01-29T08:55:26.250Z,97216.88
2023-01-29T08:57:52.746Z,97210.66
2023-01-29T09:00:19.469Z,97214.22
2023-01-29T09:02:46.014Z,97214.88
2023-01-29T09:05:12.563Z,97213.06
2023-01-29T09:07:39.055Z,97220.09
2023-01-29T09:10:05.712Z,97218.19
2023-01-29T09:12:33.875Z,97215.44
2023-01-29T09:15:00.317Z,97223.19
2023-01-29T09:17:26.807Z,97227.53
2023-01-29T09:19:53.454Z,97240.78
2023-01-29T09:22:20.185Z,97237.91
2023-01-29T09:24:47.249Z,97235.16
2023-01-29T09:27:13.804Z,97234.97
2023-01-29T09:29:40.228Z,97235.84
2023-01-29T09:32:07.181Z,97241.94
2023-01-29T09:34:33.934Z,97254.22
2023-01-29T09:37:00.785Z,97252.22
2023-01-29T09:39:27.741Z,97254.72
2023-01-29T09:42:15.381Z,97259.06
2023-01-29T09:44:57.101Z,97257.97
2023-01-29T09:47:24.345Z,97258.84
2023-01-29T09:49:56.814Z,97249.78
2023-01-29T09:52:23.364Z,97250.63
2023-01-29T09:55:08.699Z,97242.63
2023-01-29T09:57:44.489Z,97251.38
2023-01-29T10:00:37.325Z,97254.06
2023-01-29T10:03:12.974Z,97234.91
2023-01-29T10:05:42.206Z,97226.28
2023-01-29T10:08:27.504Z,97222.88
2023-01-29T10:11:06.788Z,97227.34
2023-01-29T10:13:41.123Z,97232.50
2023-01-29T10:16:10.546Z,97239.47
2023-01-29T10:18:52.009Z,97232.31
2023-01-29T10:21:18.421Z,97220.88
2023-01-29T10:23:51.803Z,97213.94
2023-01-29T10:26:19.382Z,97211.34
2023-01-29T10:28:47.518Z,97208.69
2023-01-29T10:31:38.527Z,97216.69
2023-01-29T10:34:14.038Z,97224.38
2023-01-29T10:36:44.814Z,97217.84
2023-01-29T10:39:14.708Z,97220.25
2023-01-29T10:41:44.242Z,97224.53
2023-01-29T10:44:29.553Z,97225.19
2023-01-29T10:47:15.189Z,97217.84
2023-01-29T10:50:00.302Z,97215.06
2023-01-29T10:52:32.683Z,97212.31
2023-01-29T10:55:02.223Z,97214.78
2023-01-29T10:57:48.766Z,97218.22
2023-01-29T11:00:25.629Z,97203.81
2023-01-29T11:02:52.576Z,97200.06
2023-01-29T11:05:26.873Z,97187.50
2023-01-29T11:07:59.734Z,97183.88
2023-01-29T11:10:26.201Z,97184.63
2023-01-29T11:12:55.032Z,97176.53
2023-01-29T11:15:25.775Z,97173.00
2023-01-29T11:18:05.834Z,97169.47
2023-01-29T11:20:33.014Z,97172.13
2023-01-29T11:23:00.284Z,97169.47
2023-01-29T11:25:28.806Z,97168.63
2023-01-29T11:27:56.637Z,97152.69
2023-01-29T11:30:34.199Z,97151.94
2023-01-29T11:33:04.062Z,97141.34
2023-01-29T11:35:32.782Z,97137.09
2023-01-29T11:38:06.594Z,97129.28
2023-01-29T11:40:35.432Z,97133.00
2023-01-29T11:43:20.443Z,97128.72
2023-01-29T11:45:47.664Z,97120.81
2023-01-29T11:48:18.354Z,97115.56
2023-01-29T11:50:44.922Z,97106.91
2023-01-29T11:53:20.875Z,97116.72
2023-01-29T11:55:50.788Z,97115.03
2023-01-29T11:58:18.748Z,97116.94
2023-01-29T12:00:46.976Z,97113.59
2023-01-29T12:03:17.242Z,97124.38
2023-01-29T12:05:52.446Z,97122.84
2023-01-29T12:08:19.035Z,97130.00
2023-01-29T12:10:45.527Z,97119.59
2023-01-29T12:13:24.109Z,97110.72
2023-01-29T12:15:54.489Z,97107.31
2023-01-29T12:18:27.013Z,97096.28
2023-01-29T12:20:56.116Z,97085.25
2023-01-29T12:23:41.479Z,97084.59
2023-01-29T12:26:15.869Z,97081.16
2023-01-29T12:29:00.946Z,97087.53
2023-01-29T12:31:35.610Z,97081.34
2023-01-29T12:34:02.506Z,97076.09
2023-01-29T12:36:31.611Z,97066.41
2023-01-29T12:38:59.272Z,97062.97
2023-01-29T12:41:30.199Z,97047.91
2023-01-29T12:43:58.266Z,97045.16
2023-01-29T12:46:26.405Z,97056.41
2023-01-29T12:48:53.055Z,97058.59
2023-01-29T12:51:20.721Z,97059.03
2023-01-29T12:53:52.028Z,97057.13
2023-01-29T12:56:25.764Z,97061.13
2023-01-29T12:58:53.043Z,97057.09
2023-01-29T13:01:22.594Z,97055.00
2023-01-29T13:03:52.195Z,97058.34
2023-01-29T13:06:20.358Z,97048.31
2023-01-29T13:08:54.832Z,97048.97
2023-01-29T13:11:24.320Z,97049.72
2023-01-29T13:13:59.429Z,97052.41
2023-01-29T13:16:27.851Z,97047.34
2023-01-29T13:19:01.843Z,97048.19
2023-01-29T13:21:34.120Z,97048.84
2023-01-29T13:24:02.551Z,97041.50
2023-01-29T13:26:29.319Z,97047.59
2023-01-29T13:28:55.846Z,97050.16
2023-01-29T13:31:35.369Z,97045.56
2023-01-29T13:34:20.083Z,97046.44
2023-01-29T13:36:47.613Z,97041.00
2023-01-29T13:39:17.182Z,97033.84
2023-01-29T13:41:43.676Z,97035.56
2023-01-29T13:44:25.439Z,97022.22
2023-01-29T13:47:10.560Z,97023.06
2023-01-29T13:49:37.503Z,97025.63
2023-01-29T13:52:19.341Z,97030.13
2023-01-29T13:54:53.290Z,97014.94
2023-01-29T13:57:38.789Z,97020.19
2023-01-29T14:00:06.529Z,97019.31
2023-01-29T14:02:33.158Z,97027.22
2023-01-29T14:05:18.691Z,97012.94
2023-01-29T14:07:45.427Z,97016.47
2023-01-29T14:10:16.807Z,97012.94
2023-01-29T14:12:43.368Z,97014.63
2023-01-29T14:15:20.637Z,97015.38
2023-01-29T14:17:59.938Z,97011.97
2023-01-29T14:20:47.088Z,97026.06
2023-01-29T14:23:21.370Z,97018.94
2023-01-29T14:25:48.030Z,97017.44
2023-01-29T14:28:16.651Z,97032.56
2023-01-29T14:30:45.825Z,97041.47
2023-01-29T14:33:22.835Z,97029.72
2023-01-29T14:35:49.487Z,97035.91
2023-01-29T14:38:15.996Z,97028.63
2023-01-29T14:40:42.477Z,97018.81
2023-01-29T14:43:09.219Z,97017.00
2023-01-29T14:45:41.806Z,97021.47
2023-01-29T14:48:11.514Z,97020.53
2023-01-29T14:50:47.494Z,97016.03
2023-01-29T14:53:32.974Z,97005.34
2023-01-29T14:56:08.840Z,97002.69
2023-01-29T14:58:44.089Z,97006.22
2023-01-29T15:01:21.230Z,97008.88
2023-01-29T15:03:55.691Z,97011.53
2023-01-29T15:06:41.016Z,97013.38
2023-01-29T15:09:14.785Z,97025.88
2023-01-29T15:11:49.707Z,97020.53
2023-01-29T15:14:24.164Z,97002.78
2023-01-29T15:16:56.295Z,97009.94
2023-01-29T15:19:28.442Z,97022.44
2023-01-29T15:22:04.376Z,97017.09
2023-01-29T15:24:31.080Z,97011.03
2023-01-29T15:26:57.614Z,97006.53
2023-01-29T15:29:24.715Z,97005.69
2023-01-29T15:31:51.365Z,97005.78
2023-01-29T15:34:17.976Z,97009.28
2023-01-29T15:36:44.624Z,96996.94
2023-01-29T15:39:22.532Z,96996.06
2023-01-29T15:41:50.711Z,96993.41
2023-01-29T15:44:21.776Z,96990.84
2023-01-29T15:46:52.551Z,96990.75
2023-01-29T15:49:28.999Z,96991.69
2023-01-29T15:51:56.910Z,97002.34
2023-01-29T15:54:23.419Z,96997.03
2023-01-29T15:56:50.805Z,97001.50
2023-01-29T15:59:18.413Z,96998.84
2023-01-29T16:01:45.956Z,97001.50
2023-01-29T16:04:18.001Z,97005.97
2023-01-29T16:06:44.559Z,97000.63
2023-01-29T16:09:12.186Z,96997.97
2023-01-29T16:11:38.951Z,97002.47
2023-01-29T16:14:05.494Z,96992.75
2023-01-29T16:16:32.036Z,96994.53
2023-01-29T16:19:00.841Z,96988.34
2023-01-29T16:21:29.334Z,96990.19
2023-01-29T16:23:56.916Z,96984.00
2023-01-29T16:26:28.051Z,96982.28
2023-01-29T16:28:54.685Z,96983.13
2023-01-29T16:31:22.420Z,96987.59
2023-01-29T16:33:49.793Z,96989.44
2023-01-29T16:36:21.088Z,96994.78
2023-01-29T16:38:49.231Z,96990.38
2023-01-29T16:41:28.695Z,97001.06
2023-01-29T16:44:13.726Z,97002.03
2023-01-29T16:46:46.924Z,97003.84
2023-01-29T16:49:25.667Z,96999.44
2023-01-29T16:51:52.574Z,97002.22
2023-01-29T16:54:23.296Z,96996.03
2023-01-29T16:56:50.400Z,97003.19
2023-01-29T16:59:17.796Z,97013.00
2023-01-29T17:01:44.508Z,97007.66
2023-01-29T17:04:13.045Z,97006.81
2023-01-29T17:06:40.553Z,97015.66
2023-01-29T17:09:07.120Z,97005.13
2023-01-29T17:11:35.417Z,97009.56
2023-01-29T17:14:01.936Z,97009.56
2023-01-29T17:16:29.938Z,97002.53
2023-01-29T17:18:56.716Z,97006.06
2023-01-29T17:21:23.380Z,97007.88
2023-01-29T17:23:49.927Z,97011.38
2023-01-29T17:26:16.996Z,97011.50
2023-01-29T17:28:43.787Z,97015.13
2023-01-29T17:31:10.386Z,97007.13
2023-01-29T17:33:40.350Z,97015.97
2023-01-29T17:36:09.298Z,97011.63
2023-01-29T17:38:35.771Z,97016.06
2023-01-29T17:41:03.606Z,97015.22
2023-01-29T17:43:30.061Z,97008.28
2023-01-29T17:45:56.543Z,97006.56
2023-01-29T17:48:24.328Z,97004.13
2023-01-29T17:50:53.365Z,97004.22
2023-01-29T17:53:20.487Z,97002.59
2023-01-29T17:55:46.985Z,97005.47
2023-01-29T17:58:17.844Z,97004.69
2023-01-29T18:00:45.367Z,97010.88
2023-01-29T18:03:11.895Z,97006.50
2023-01-29T18:05:42.421Z,97017.09
2023-01-29T18:08:22.393Z,97008.13
2023-01-29T18:10:48.957Z,97012.63
2023-01-29T18:13:15.403Z,97018.72
2023-01-29T18:15:41.857Z,97007.91
2023-01-29T18:18:10.334Z,97009.66
2023-01-29T18:20:38.410Z,97001.63
2023-01-29T18:23:06.554Z,97000.69
2023-01-29T18:25:33.553Z,97006.88
2023-01-29T18:28:00.096Z,97000.56
2023-01-29T18:30:26.653Z,97004.13
2023-01-29T18:32:54.320Z,96999.63
2023-01-29T18:35:20.853Z,96996.97
2023-01-29T18:37:47.414Z,97004.00
2023-01-29T18:40:14.127Z,97004.88
2023-01-29T18:42:40.604Z,97000.38
2023-01-29T18:45:07.385Z,96999.53
2023-01-29T18:47:33.842Z,97010.19
2023-01-29T18:50:00.365Z,97004.88
2023-01-29T18:52:26.921Z,96995.03
2023-01-29T18:54:53.748Z,96999.53
2023-01-29T18:58:28.525Z,97005.72
2023-01-29T19:00:07.204Z,97006.47
2023-01-29T19:02:33.740Z,97013.22
2023-01-29T19:05:00.287Z,97019.97
2023-01-29T19:07:26.774Z,97017.94
2023-01-29T19:09:53.459Z,97024.66
2023-01-29T19:12:19.957Z,97027.97
2023-01-29T19:14:46.650Z,97026.72
2023-01-29T19:17:13.094Z,97025.53
2023-01-29T19:19:39.608Z,97030.38
2023-01-29T19:22:06.189Z,97033.50
2023-01-29T19:24:38.893Z,97033.81
2023-01-29T19:27:06.576Z,97030.75
2023-01-29T19:29:33.273Z,97037.28
2023-01-29T19:31:59.747Z,97037.81
2023-01-29T19:34:26.317Z,97039.88
2023-01-29T19:36:52.857Z,97039.31
2023-01-29T19:39:19.296Z,97033.44
2023-01-29T19:41:45.786Z,97014.41
2023-01-29T19:44:12.473Z,97020.06
2023-01-29T19:46:38.997Z,97016.19
2023-01-29T19:49:07.752Z,97019.41
2023-01-29T19:51:36.517Z,97021.78
2023-01-29T19:54:04.034Z,97016.13
2023-01-29T19:56:30.688Z,97010.53
2023-01-29T19:58:57.565Z,97017.25
2023-01-29T20:01:29.531Z,97017.78
2023-01-29T20:03:56.053Z,97018.28
2023-01-29T20:06:23.888Z,97022.34
2023-01-29T20:08:50.499Z,97020.31
2023-01-29T20:11:17.783Z,97023.50
2023-01-29T20:13:45.964Z,97029.50
2023-01-29T20:16:13.195Z,97019.41
2023-01-29T20:18:39.734Z,97027.97
2023-01-29T20:21:08.204Z,97026.88
2023-01-29T20:23:38.059Z,97032.84
2023-01-29T20:26:05.824Z,97036.06
2023-01-29T20:28:32.460Z,97041.94
2023-01-29T20:30:59.113Z,97045.13
2023-01-29T20:33:26.339Z,97038.59
2023-01-29T20:35:56.902Z,97041.03
2023-01-29T20:38:23.549Z,97046.88
2023-01-29T20:40:50.145Z,97043.03
2023-01-29T20:43:17.421Z,97045.38
2023-01-29T20:45:44.045Z,97045.88
2023-01-29T20:48:11.495Z,97049.16
2023-01-29T20:50:38.012Z,97040.91
2023-01-29T20:53:04.640Z,97037.03
2023-01-29T20:55:31.562Z,97039.47
2023-01-29T20:58:06.432Z,97035.72
2023-01-29T21:00:34.077Z,97035.34
2023-01-29T21:03:02.596Z,97029.75
2023-01-29T21:05:29.112Z,97031.22
2023-01-29T21:07:55.536Z,97030.03
2023-01-29T21:10:22.093Z,97031.63
2023-01-29T21:12:48.565Z,97028.72
2023-01-29T21:15:15.151Z,97026.56
2023-01-29T21:17:41.608Z,97022.78
2023-01-29T21:20:10.999Z,97037.66
2023-01-29T21:22:37.803Z,97027.66
2023-01-29T21:25:04.411Z,97035.34
2023-01-29T21:27:30.970Z,97026.22
2023-01-29T21:29:57.612Z,97025.13
2023-01-29T21:32:24.320Z,97028.41
2023-01-29T21:34:52.612Z,97024.53
2023-01-29T21:37:19.184Z,97019.78
2023-01-29T21:39:46.048Z,97016.84
2023-01-29T21:42:31.436Z,97005.03
2023-01-29T21:44:58.409Z,97008.19
2023-01-29T21:47:24.832Z,96998.19
2023-01-29T21:49:51.284Z,97000.88
2023-01-29T21:52:18.814Z,96999.91
2023-01-29T21:54:48.698Z,96994.31
2023-01-29T21:57:16.310Z,96988.97
2023-01-29T21:59:43.056Z,96981.50
2023-01-29T22:02:13.400Z,96985.06
2023-01-29T22:04:40.206Z,96989.19
2023-01-29T22:07:06.730Z,96989.94
2023-01-29T22:09:34.238Z,96987.88
2023-01-29T22:12:00.814Z,96987.63
2023-01-29T22:14:27.352Z,96982.97
2023-01-29T22:16:53.930Z,96980.91
2023-01-29T22:19:20.528Z,96980.66
2023-01-29T22:21:47.140Z,96956.66
2023-01-29T22:24:13.955Z,96934.22
2023-01-29T22:26:40.445Z,96924.50
2023-01-29T22:29:06.973Z,96919.00
2023-01-29T22:31:35.005Z,96903.47
2023-01-29T22:34:01.569Z,96892.28
2023-01-29T22:36:28.106Z,96887.00
2023-01-29T22:38:55.914Z,96885.19
2023-01-29T22:41:22.484Z,96884.06
2023-01-29T22:43:48.987Z,96883.78
2023-01-29T22:46:15.533Z,96879.72
2023-01-29T22:48:42.160Z,96875.69
2023-01-29T22:51:09.782Z,96869.84
2023-01-29T22:53:38.258Z,96868.50
2023-01-29T22:56:05.184Z,96871.38
2023-01-29T22:58:31.686Z,96867.13
2023-01-29T23:00:58.181Z,96861.16
2023-01-29T23:03:24.849Z,96855.06
2023-01-29T23:05:51.306Z,96862.38
2023-01-29T23:08:18.312Z,96858.09
2023-01-29T23:10:44.891Z,96861.84
2023-01-29T23:13:11.401Z,96857.59
2023-01-29T23:15:38.907Z,96852.47
2023-01-29T23:18:05.467Z,96848.09
2023-01-29T23:20:32.255Z,96841.16
2023-01-29T23:22:58.811Z,96847.47
2023-01-29T23:25:45.254Z,96834.44
2023-01-29T23:28:11.881Z,96838.06
2023-01-29T23:30:38.348Z,96836.38
2023-01-29T23:33:05.019Z,96833.81
2023-01-29T23:35:31.658Z,96826.75
2023-01-29T23:37:58.290Z,96828.69
2023-01-29T23:40:24.934Z,96828.84
2023-01-29T23:42:51.433Z,96820.19
2023-01-29T23:45:18.057Z,96821.25
2023-01-29T23:47:44.721Z,96812.44
2023-01-29T23:50:11.435Z,96812.69
2023-01-29T23:52:38.833Z,96811.09
2023-01-29T23:55:05.667Z,96810.50
2023-01-29T23:57:32.148Z,96798.28
2023-01-29T23:59:58.672Z,96799.38
